createdAt,value
2019-02-25T00:02:18.181Z,7.23
2019-02-25T00:05:01.805Z,6.77
2019-02-25T00:07:43.652Z,8.27
2019-02-25T00:10:25.498Z,7.57
2019-02-25T00:13:07.654Z,7.00
2019-02-25T00:15:49.143Z,7.67
2019-02-25T00:18:31.234Z,6.80
2019-02-25T00:21:12.802Z,6.40
2019-02-25T00:23:54.471Z,6.50
2019-02-25T00:26:36.250Z,6.93
2019-02-25T00:29:17.821Z,8.27
2019-02-25T00:31:59.966Z,7.37
2019-02-25T00:34:42.752Z,10.58
2019-02-25T00:37:25.048Z,9.87
2019-02-25T00:40:07.255Z,9.27
2019-02-25T00:42:49.219Z,9.50
2019-02-25T00:45:30.818Z,8.53
2019-02-25T00:48:13.119Z,8.33
2019-02-25T00:50:55.527Z,9.20
2019-02-25T00:53:37.045Z,8.30
2019-02-25T00:56:18.858Z,8.53
2019-02-25T00:59:01.009Z,8.20
2019-02-25T01:01:43.226Z,8.33
2019-02-25T01:04:25.451Z,7.60
2019-02-25T01:07:07.878Z,6.43
2019-02-25T01:09:49.904Z,11.80
2019-02-25T01:12:31.914Z,13.83
2019-02-25T01:15:13.972Z,10.70
2019-02-25T01:17:56.130Z,11.93
2019-02-25T01:20:37.677Z,11.40
2019-02-25T01:23:19.738Z,8.50
2019-02-25T01:26:01.855Z,9.53
2019-02-25T01:28:43.232Z,10.87
2019-02-25T01:31:25.501Z,9.70
2019-02-25T01:34:07.729Z,9.40
2019-02-25T01:36:49.769Z,9.60
2019-02-25T01:39:31.246Z,9.43
2019-02-25T01:42:12.833Z,9.03
2019-02-25T01:44:54.898Z,8.60
2019-02-25T01:47:36.441Z,10.33
2019-02-25T01:50:18.946Z,9.97
2019-02-25T01:53:00.352Z,9.23
2019-02-25T01:55:42.379Z,9.70
2019-02-25T01:58:24.235Z,7.83
2019-02-25T02:01:06.485Z,7.97
2019-02-25T02:03:48.700Z,8.93
2019-02-25T02:06:30.683Z,7.90
2019-02-25T02:09:12.540Z,10.90
2019-02-25T02:11:54.943Z,7.87
2019-02-25T02:14:36.478Z,8.60
2019-02-25T02:17:18.514Z,7.23
2019-02-25T02:20:01.007Z,7.67
2019-02-25T02:22:43.081Z,5.47
2019-02-25T02:25:25.280Z,8.03
2019-02-25T02:28:07.173Z,8.37
2019-02-25T02:30:48.903Z,6.83
2019-02-25T02:33:30.939Z,9.43
2019-02-25T02:36:13.211Z,8.07
2019-02-25T02:38:55.038Z,10.27
2019-02-25T02:41:37.101Z,7.70
2019-02-25T02:44:18.688Z,14.10
2019-02-25T02:47:00.625Z,8.38
2019-02-25T02:49:42.715Z,15.27
2019-02-25T02:52:24.265Z,7.73
2019-02-25T02:55:06.024Z,10.97
2019-02-25T02:57:47.662Z,8.97
2019-02-25T03:00:29.873Z,8.03
2019-02-25T03:03:13.982Z,10.60
2019-02-25T03:05:55.656Z,7.60
2019-02-25T03:08:38.215Z,10.40
2019-02-25T03:11:20.309Z,11.33
2019-02-25T03:14:02.508Z,12.27
2019-02-25T03:16:44.627Z,7.40
2019-02-25T03:19:27.187Z,9.60
2019-02-25T03:22:09.430Z,9.60
2019-02-25T03:24:51.045Z,8.70
2019-02-25T03:27:32.886Z,8.77
2019-02-25T03:30:14.447Z,9.03
2019-02-25T03:32:57.224Z,10.40
2019-02-25T03:35:39.315Z,9.47
2019-02-25T03:38:21.057Z,5.93
2019-02-25T03:41:02.813Z,8.40
2019-02-25T03:43:44.909Z,10.27
2019-02-25T03:46:26.861Z,8.50
2019-02-25T03:49:09.275Z,9.30
2019-02-25T03:51:51.602Z,9.60
2019-02-25T03:54:33.191Z,9.80
2019-02-25T03:57:15.062Z,10.23
2019-02-25T03:59:56.978Z,13.53
2019-02-25T04:02:38.335Z,8.10
2019-02-25T04:05:20.556Z,11.23
2019-02-25T04:08:02.859Z,10.00
2019-02-25T04:10:44.807Z,8.80
2019-02-25T04:13:27.027Z,8.93
2019-02-25T04:16:08.902Z,10.10
2019-02-25T04:18:50.838Z,9.93
2019-02-25T04:21:33.014Z,9.33
2019-02-25T04:24:14.981Z,8.87
2019-02-25T04:26:56.837Z,8.70
2019-02-25T04:29:38.983Z,13.00
2019-02-25T04:32:21.816Z,7.57
2019-02-25T04:35:03.933Z,13.03
2019-02-25T04:37:46.454Z,11.47
2019-02-25T04:40:28.016Z,8.53
2019-02-25T04:43:09.856Z,10.13
2019-02-25T04:45:51.480Z,9.30
2019-02-25T04:48:33.415Z,10.00
2019-02-25T04:51:15.178Z,10.57
2019-02-25T04:53:57.516Z,10.50
2019-02-25T04:56:39.145Z,8.87
2019-02-25T04:59:20.712Z,11.77
2019-02-25T05:02:02.508Z,8.67
2019-02-25T05:04:44.718Z,10.70
2019-02-25T05:07:26.630Z,10.70
2019-02-25T05:10:08.962Z,8.87
2019-02-25T05:13:10.623Z,9.53
2019-02-25T05:15:51.971Z,9.07
2019-02-25T05:18:34.119Z,8.90
2019-02-25T05:21:15.599Z,7.47
2019-02-25T05:23:57.246Z,11.10
2019-02-25T05:26:39.567Z,10.70
2019-02-25T05:29:21.523Z,9.83
2019-02-25T05:32:03.464Z,11.30
2019-02-25T05:34:45.296Z,10.63
2019-02-25T05:37:27.388Z,9.67
2019-02-25T05:40:09.217Z,14.97
2019-02-25T05:42:50.701Z,12.33
2019-02-25T05:45:32.960Z,14.00
2019-02-25T05:48:15.492Z,10.10
2019-02-25T05:50:57.539Z,11.53
2019-02-25T05:53:39.646Z,15.93
2019-02-25T05:56:21.293Z,9.50
2019-02-25T05:59:02.839Z,17.30
2019-02-25T06:01:45.573Z,23.42
2019-02-25T06:04:29.517Z,19.10
2019-02-25T06:07:11.354Z,17.37
2019-02-25T06:09:53.417Z,15.47
2019-02-25T06:12:35.259Z,12.53
2019-02-25T06:15:17.255Z,11.00
2019-02-25T06:17:58.786Z,10.93
2019-02-25T06:20:40.756Z,11.63
2019-02-25T06:23:22.693Z,9.57
2019-02-25T06:26:04.233Z,15.70
2019-02-25T06:28:46.082Z,12.33
2019-02-25T06:31:28.006Z,8.80
2019-02-25T06:34:10.550Z,9.17
2019-02-25T06:36:52.229Z,11.33
2019-02-25T06:39:34.234Z,12.73
2019-02-25T06:42:16.304Z,9.83
2019-02-25T06:44:58.668Z,13.83
2019-02-25T06:47:40.756Z,10.37
2019-02-25T06:50:23.398Z,12.73
2019-02-25T06:53:05.397Z,9.27
2019-02-25T06:55:47.665Z,12.03
2019-02-25T06:58:29.643Z,11.13
2019-02-25T07:01:11.267Z,14.83
2019-02-25T07:04:12.198Z,8.48
2019-02-25T07:06:58.676Z,10.87
2019-02-25T07:09:59.523Z,17.73
2019-02-25T07:12:42.672Z,13.33
2019-02-25T07:15:29.475Z,16.97
2019-02-25T07:21:23.264Z,11.13
2019-02-25T07:24:24.483Z,11.97
2019-02-25T07:27:07.751Z,10.43
2019-02-25T07:30:08.733Z,12.77
2019-02-25T07:33:09.932Z,11.57
2019-02-25T07:35:51.458Z,9.97
2019-02-25T07:38:59.608Z,11.90
2019-02-25T07:42:09.717Z,12.03
2019-02-25T07:48:46.681Z,9.70
2019-02-25T07:51:54.804Z,12.03
2019-02-25T07:55:02.951Z,8.63
2019-02-25T07:58:11.071Z,13.23
2019-02-25T08:01:20.755Z,10.13
2019-02-25T08:07:44.801Z,14.23
2019-02-25T08:14:21.765Z,9.57
2019-02-25T08:20:15.413Z,10.53
2019-02-25T08:22:59.480Z,11.57
2019-02-25T08:26:00.759Z,12.73
2019-02-25T08:35:14.473Z,26.63
2019-02-25T08:37:57.667Z,16.70
2019-02-25T08:40:41.124Z,14.03
2019-02-25T08:43:27.756Z,20.93
2019-02-25T08:46:11.489Z,13.27
2019-02-25T08:48:55.240Z,14.17
2019-02-25T08:51:36.757Z,14.03
2019-02-25T08:54:18.689Z,16.77
2019-02-25T08:57:00.959Z,12.43
2019-02-25T08:59:31.258Z,15.60
2019-02-25T09:02:00.824Z,14.97
2019-02-25T09:04:31.097Z,14.73
2019-02-25T09:07:00.877Z,17.37
2019-02-25T09:09:31.190Z,10.23
2019-02-25T09:12:00.830Z,9.33
2019-02-25T09:14:31.116Z,9.75
2019-02-25T09:17:00.899Z,10.77
2019-02-25T09:19:31.096Z,11.73
2019-02-25T09:22:00.854Z,13.73
2019-02-25T09:24:31.146Z,12.47
2019-02-25T09:27:00.845Z,10.03
2019-02-25T09:29:31.098Z,14.00
2019-02-25T09:32:00.913Z,15.00
2019-02-25T09:34:31.199Z,16.62
2019-02-25T09:37:00.861Z,14.30
2019-02-25T09:39:31.130Z,16.23
2019-02-25T09:42:02.143Z,13.97
2019-02-25T09:44:31.892Z,13.47
2019-02-25T09:47:01.479Z,13.87
2019-02-25T09:49:31.203Z,7.60
2019-02-25T09:52:00.930Z,9.80
2019-02-25T09:54:31.274Z,10.00
2019-02-25T09:57:00.885Z,11.93
2019-02-25T09:59:31.168Z,9.08
2019-02-25T10:02:00.620Z,10.27
2019-02-25T10:04:31.164Z,7.83
2019-02-25T10:07:02.428Z,7.60
2019-02-25T10:09:32.495Z,13.93
2019-02-25T10:12:14.280Z,11.93
2019-02-25T10:14:44.024Z,10.78
2019-02-25T10:17:32.939Z,10.43
2019-02-25T10:20:41.460Z,7.77
2019-02-25T10:23:50.804Z,11.38
2019-02-25T10:29:47.604Z,12.53
2019-02-25T10:32:36.717Z,6.67
2019-02-25T10:35:09.593Z,13.43
2019-02-25T10:37:58.565Z,3.77
2019-02-25T10:40:49.126Z,10.13
2019-02-25T10:43:18.577Z,5.97
2019-02-25T10:46:09.618Z,8.30
2019-02-25T10:49:17.576Z,8.43
2019-02-25T10:52:25.914Z,8.27
2019-02-25T10:55:35.912Z,9.03
2019-02-25T10:58:27.056Z,13.10
2019-02-25T11:01:37.537Z,13.43
2019-02-25T11:04:47.358Z,14.70
2019-02-25T11:07:49.875Z,9.80
2019-02-25T11:10:36.039Z,8.63
2019-02-25T11:13:18.220Z,11.33
2019-02-25T11:15:59.869Z,12.73
2019-02-25T11:18:41.258Z,13.13
2019-02-25T11:21:22.888Z,10.37
2019-02-25T11:24:05.221Z,10.87
2019-02-25T11:26:47.359Z,8.70
2019-02-25T11:29:29.234Z,10.77
2019-02-25T11:32:10.800Z,13.13
2019-02-25T11:34:53.257Z,9.97
2019-02-25T11:37:35.040Z,8.50
2019-02-25T11:40:16.618Z,8.73
2019-02-25T11:42:46.282Z,10.57
2019-02-25T11:45:17.118Z,13.20
2019-02-25T11:47:46.539Z,9.67
2019-02-25T11:50:18.109Z,9.37
2019-02-25T11:53:07.007Z,9.60
2019-02-25T11:56:15.296Z,8.30
2019-02-25T11:58:44.724Z,12.20
2019-02-25T12:01:14.161Z,14.33
2019-02-25T12:03:43.638Z,9.67
2019-02-25T12:06:32.563Z,9.13
2019-02-25T12:09:23.049Z,11.60
2019-02-25T12:12:04.960Z,6.00
2019-02-25T12:14:47.007Z,9.33
2019-02-25T12:17:29.381Z,8.97
2019-02-25T12:20:11.038Z,10.47
2019-02-25T12:22:51.007Z,10.20
2019-02-25T12:25:39.910Z,12.53
2019-02-25T12:28:30.331Z,8.97
2019-02-25T12:31:01.377Z,7.13
2019-02-25T12:33:31.439Z,5.55
2019-02-25T12:36:20.276Z,7.30
2019-02-25T12:39:28.637Z,10.20
2019-02-25T12:41:59.675Z,9.50
2019-02-25T12:47:56.872Z,5.30
2019-02-25T12:50:47.306Z,10.90
2019-02-25T12:53:37.789Z,11.83
2019-02-25T12:56:46.031Z,8.10
2019-02-25T12:59:36.664Z,8.77
2019-02-25T13:02:20.274Z,13.37
2019-02-25T13:05:02.122Z,8.77
2019-02-25T13:07:42.073Z,7.43
2019-02-25T13:10:30.932Z,10.13
2019-02-25T13:13:21.386Z,6.83
2019-02-25T13:16:11.865Z,6.23
2019-02-25T13:19:20.136Z,9.10
2019-02-25T13:22:10.802Z,4.30
2019-02-25T13:25:03.192Z,6.53
2019-02-25T13:28:11.173Z,6.60
2019-02-25T13:31:03.241Z,3.33
2019-02-25T13:34:11.791Z,5.53
2019-02-25T13:37:01.075Z,3.50
2019-02-25T13:39:51.893Z,5.20
2019-02-25T13:42:40.761Z,7.27
2019-02-25T13:45:15.156Z,5.37
2019-02-25T13:48:04.115Z,6.70
2019-02-25T13:51:12.404Z,5.37
2019-02-25T13:54:20.845Z,6.87
2019-02-25T13:57:30.849Z,6.67
2019-02-25T14:00:39.177Z,3.90
2019-02-25T14:03:41.228Z,10.07
2019-02-25T14:06:23.187Z,4.65
2019-02-25T14:09:05.655Z,6.33
2019-02-25T14:11:47.795Z,6.97
2019-02-25T14:14:30.791Z,7.83
2019-02-25T14:17:13.362Z,3.55
2019-02-25T14:19:42.880Z,6.93
2019-02-25T14:22:32.098Z,6.33
2019-02-25T14:25:43.727Z,6.83
2019-02-25T14:28:52.372Z,3.87
2019-02-25T14:31:43.117Z,3.13
2019-02-25T14:34:12.712Z,6.67
2019-02-25T14:36:42.503Z,7.67
2019-02-25T14:39:32.955Z,5.17
2019-02-25T14:42:44.494Z,6.80
2019-02-25T14:45:55.742Z,6.50
2019-02-25T14:49:02.567Z,6.03
2019-02-25T14:52:11.134Z,7.03
2019-02-25T14:55:04.087Z,7.93
2019-02-25T14:58:13.102Z,10.40
2019-02-25T15:01:23.266Z,7.10
2019-02-25T15:04:33.436Z,11.53
2019-02-25T15:07:44.660Z,22.15
2019-02-25T15:10:55.565Z,12.17
2019-02-25T15:14:51.304Z,11.00
2019-02-25T15:17:14.856Z,13.05
2019-02-25T15:20:16.949Z,11.53
2019-02-25T15:22:59.789Z,14.80
2019-02-25T15:25:43.238Z,4.87
2019-02-25T15:28:26.175Z,9.97
2019-02-25T15:30:55.787Z,7.22
2019-02-25T15:33:25.603Z,17.87
2019-02-25T15:35:55.091Z,21.77
2019-02-25T15:38:24.842Z,18.42
2019-02-25T15:40:56.193Z,14.95
2019-02-25T15:50:15.300Z,13.10
2019-02-25T15:52:46.685Z,11.97
2019-02-25T15:55:35.606Z,11.20
2019-02-25T15:58:08.688Z,4.73
2019-02-25T16:00:57.504Z,6.53
2019-02-25T16:03:28.649Z,10.73
2019-02-25T16:06:01.634Z,9.67
2019-02-25T16:08:31.191Z,8.63
2019-02-25T16:11:05.813Z,8.80
2019-02-25T16:13:37.746Z,9.03
2019-02-25T16:16:07.741Z,13.87
2019-02-25T16:18:49.734Z,10.20
2019-02-25T16:21:31.672Z,6.43
2019-02-25T16:24:04.033Z,8.33
2019-02-25T16:26:34.093Z,9.17
2019-02-25T16:29:05.924Z,7.87
2019-02-25T16:31:35.867Z,9.90
2019-02-25T16:34:06.052Z,12.13
2019-02-25T16:36:35.813Z,12.13
2019-02-25T16:39:07.634Z,11.93
2019-02-25T16:45:34.754Z,5.87
2019-02-25T16:48:23.527Z,8.97
2019-02-25T16:50:50.886Z,10.23
2019-02-25T16:53:20.593Z,8.20
2019-02-25T16:55:51.572Z,14.50
2019-02-25T16:58:21.144Z,9.17
2019-02-25T17:00:50.783Z,8.23
2019-02-25T17:03:20.646Z,11.33
2019-02-25T17:06:11.358Z,13.33
2019-02-25T17:12:15.320Z,13.40
2019-02-25T17:14:45.005Z,9.47
2019-02-25T17:17:14.681Z,8.63
2019-02-25T17:19:44.223Z,7.73
2019-02-25T17:22:13.742Z,11.37
2019-02-25T17:24:43.255Z,8.50
2019-02-25T17:27:14.167Z,14.17
2019-02-25T17:29:43.834Z,7.63
2019-02-25T17:32:14.575Z,14.67
2019-02-25T17:34:44.973Z,8.15
2019-02-25T17:37:15.388Z,10.93
2019-02-25T17:40:26.149Z,8.93
2019-02-25T17:43:36.857Z,10.60
2019-02-25T17:46:28.853Z,9.83
2019-02-25T17:48:57.869Z,9.60
2019-02-25T17:51:27.344Z,15.73
2019-02-25T17:53:57.067Z,16.23
2019-02-25T17:56:27.460Z,29.33
2019-02-25T17:58:59.388Z,18.40
2019-02-25T18:01:29.069Z,15.97
2019-02-25T18:03:59.872Z,19.73
2019-02-25T18:06:31.629Z,24.73
2019-02-25T18:09:02.102Z,25.23
2019-02-25T18:11:32.047Z,20.57
2019-02-25T18:14:01.780Z,16.67
2019-02-25T18:16:33.272Z,18.27
2019-02-25T18:19:03.276Z,16.97
2019-02-25T18:21:52.434Z,22.37
2019-02-25T18:25:04.199Z,19.47
2019-02-25T18:28:12.591Z,28.03
2019-02-25T18:31:20.628Z,40.50
2019-02-25T18:34:30.127Z,26.83
2019-02-25T18:37:39.715Z,23.13
2019-02-25T18:40:48.872Z,24.93
2019-02-25T18:43:39.355Z,21.03
2019-02-25T18:46:08.977Z,21.40
2019-02-25T18:48:38.411Z,21.47
2019-02-25T18:51:28.364Z,21.90
2019-02-25T18:54:38.935Z,15.97
2019-02-25T18:57:29.452Z,17.43
2019-02-25T18:59:59.779Z,17.77
2019-02-25T19:02:31.381Z,10.50
2019-02-25T19:05:02.106Z,20.43
2019-02-25T19:07:33.691Z,15.97
2019-02-25T19:10:03.260Z,14.70
2019-02-25T19:12:33.668Z,14.07
2019-02-25T19:15:04.936Z,12.83
2019-02-25T19:17:34.417Z,17.93
2019-02-25T19:20:16.364Z,9.63
2019-02-25T19:22:46.358Z,13.72
2019-02-25T19:28:25.656Z,9.83
2019-02-25T19:30:56.673Z,12.67
2019-02-25T19:33:26.244Z,12.37
2019-02-25T19:35:58.132Z,12.33
2019-02-25T19:38:27.181Z,18.00
2019-02-25T19:40:57.580Z,10.53
2019-02-25T19:43:27.053Z,24.17
2019-02-25T19:45:57.208Z,38.63
2019-02-25T19:48:29.409Z,39.97
2019-02-25T19:51:00.908Z,46.30
2019-02-25T19:53:35.798Z,14.10
2019-02-25T19:56:03.480Z,55.10
2019-02-25T19:58:35.459Z,35.13
2019-02-25T20:01:05.970Z,28.83
2019-02-25T20:03:37.421Z,55.33
2019-02-25T20:06:11.129Z,44.33
2019-02-25T20:08:37.996Z,19.60
2019-02-25T20:11:09.436Z,22.37
2019-02-25T20:13:40.579Z,28.10
2019-02-25T20:16:13.387Z,23.30
2019-02-25T20:18:41.960Z,19.03
2019-02-25T20:21:11.400Z,18.80
2019-02-25T20:23:41.198Z,16.60
2019-02-25T20:26:13.236Z,47.97
2019-02-25T20:28:43.426Z,37.17
2019-02-25T20:31:14.469Z,21.17
2019-02-25T20:33:44.547Z,19.47
2019-02-25T20:36:17.234Z,15.00
2019-02-25T20:38:45.258Z,19.33
2019-02-25T20:41:17.968Z,35.03
2019-02-25T20:43:53.220Z,49.73
2019-02-25T20:46:21.941Z,24.70
2019-02-25T20:48:50.752Z,17.40
2019-02-25T20:51:22.738Z,24.93
2019-02-25T20:53:53.029Z,23.97
2019-02-25T20:56:24.451Z,22.13
2019-02-25T20:58:55.070Z,16.10
2019-02-25T21:01:24.563Z,22.80
2019-02-25T21:03:54.835Z,14.90
2019-02-25T21:06:25.331Z,13.63
2019-02-25T21:08:55.173Z,17.93
2019-02-25T21:11:24.621Z,15.63
2019-02-25T21:13:54.161Z,15.63
2019-02-25T21:16:24.181Z,14.53
2019-02-25T21:18:55.130Z,12.37
2019-02-25T21:21:24.772Z,14.73
2019-02-25T21:23:54.271Z,18.63
2019-02-25T21:26:27.398Z,18.47
2019-02-25T21:28:57.977Z,15.53
2019-02-25T21:31:26.626Z,16.47
2019-02-25T21:33:56.622Z,20.23
2019-02-25T21:36:27.712Z,21.27
2019-02-25T21:38:58.372Z,18.53
2019-02-25T21:41:28.146Z,24.20
2019-02-25T21:43:59.179Z,21.03
2019-02-25T21:46:29.615Z,14.67
2019-02-25T21:49:03.455Z,18.80
2019-02-25T21:51:34.570Z,16.30
2019-02-25T21:54:04.550Z,15.03
2019-02-25T21:56:34.680Z,12.90
2019-02-25T21:59:06.064Z,17.30
2019-02-25T22:01:36.950Z,21.60
2019-02-25T22:04:09.272Z,13.80
2019-02-25T22:06:37.763Z,15.17
2019-02-25T22:09:07.393Z,15.07
2019-02-25T22:11:37.411Z,17.00
2019-02-25T22:14:07.176Z,14.57
2019-02-25T22:16:43.822Z,13.73
2019-02-25T22:19:07.754Z,13.43
2019-02-25T22:21:37.355Z,15.83
2019-02-25T22:24:08.082Z,14.90
2019-02-25T22:26:38.230Z,13.05
2019-02-25T22:29:07.602Z,14.63
2019-02-25T22:31:39.425Z,16.73
2019-02-25T22:34:08.841Z,12.93
2019-02-25T22:36:41.995Z,11.67
2019-02-25T22:39:10.686Z,9.27
2019-02-25T22:41:42.220Z,12.17
2019-02-25T22:44:11.589Z,11.00
2019-02-25T22:46:43.320Z,14.67
2019-02-25T22:49:12.504Z,14.87
2019-02-25T22:51:42.339Z,13.85
2019-02-25T22:54:12.982Z,11.50
2019-02-25T22:56:43.557Z,11.40
2019-02-25T22:59:13.291Z,12.43
2019-02-25T23:01:43.466Z,15.43
2019-02-25T23:04:15.076Z,13.23
2019-02-25T23:06:46.409Z,13.40
2019-02-25T23:09:16.568Z,12.03
2019-02-25T23:11:48.270Z,11.48
2019-02-25T23:14:18.600Z,12.83
2019-02-25T23:16:48.485Z,15.13
2019-02-25T23:19:20.133Z,13.60
2019-02-25T23:21:49.499Z,13.60
2019-02-25T23:24:18.954Z,8.70
2019-02-25T23:26:49.097Z,16.47
2019-02-25T23:29:21.739Z,12.43
2019-02-25T23:31:50.961Z,12.00
2019-02-25T23:34:22.690Z,14.23
2019-02-25T23:36:53.546Z,12.73
2019-02-25T23:39:22.813Z,14.53
2019-02-25T23:41:52.406Z,13.60
2019-02-25T23:44:22.843Z,13.43
2019-02-25T23:46:57.621Z,13.70
2019-02-25T23:49:27.289Z,13.10
2019-02-25T23:51:55.753Z,12.47
2019-02-25T23:54:27.826Z,15.80
2019-02-25T23:56:57.827Z,15.40
2019-02-25T23:59:27.868Z,12.57
